sensor_id;sensor_type;location;lat;lon;timestamp;P1;durP1;ratioP1;P2;durP2;ratioP2
37049;SDS011;22958;51.232;6.826;2023-04-22T00:00:19;25.73;;;15.10;;
37049;SDS011;22958;51.232;6.826;2023-04-22T00:02:45;27.63;;;15.77;;
37049;SDS011;22958;51.232;6.826;2023-04-22T00:05:10;26.63;;;14.20;;
37049;SDS011;22958;51.232;6.826;2023-04-22T00:10:05;29.90;;;15.17;;
37049;SDS011;22958;51.232;6.826;2023-04-22T00:12:31;29.80;;;15.48;;
37049;SDS011;22958;51.232;6.826;2023-04-22T00:14:58;28.27;;;14.98;;
37049;SDS011;22958;51.232;6.826;2023-04-22T00:17:24;30.67;;;15.63;;
37049;SDS011;22958;51.232;6.826;2023-04-22T00:19:49;29.23;;;15.07;;
37049;SDS011;22958;51.232;6.826;2023-04-22T00:22:15;26.37;;;14.30;;
37049;SDS011;22958;51.232;6.826;2023-04-22T00:24:41;27.00;;;15.47;;
37049;SDS011;22958;51.232;6.826;2023-04-22T00:27:06;25.63;;;14.73;;
37049;SDS011;22958;51.232;6.826;2023-04-22T00:29:32;27.60;;;16.00;;
37049;SDS011;22958;51.232;6.826;2023-04-22T00:31:57;34.13;;;16.23;;
37049;SDS011;22958;51.232;6.826;2023-04-22T00:34:23;32.43;;;14.93;;
37049;SDS011;22958;51.232;6.826;2023-04-22T00:36:49;28.07;;;14.33;;
37049;SDS011;22958;51.232;6.826;2023-04-22T00:39:15;28.67;;;15.13;;
37049;SDS011;22958;51.232;6.826;2023-04-22T00:41:41;25.83;;;15.70;;
37049;SDS011;22958;51.232;6.826;2023-04-22T00:44:10;26.27;;;15.07;;
37049;SDS011;22958;51.232;6.826;2023-04-22T00:46:39;27.05;;;15.27;;
37049;SDS011;22958;51.232;6.826;2023-04-22T00:49:05;30.80;;;15.43;;
37049;SDS011;22958;51.232;6.826;2023-04-22T00:51:31;28.35;;;15.68;;
37049;SDS011;22958;51.232;6.826;2023-04-22T00:53:57;26.30;;;14.43;;
37049;SDS011;22958;51.232;6.826;2023-04-22T00:56:25;27.30;;;14.30;;
37049;SDS011;22958;51.232;6.826;2023-04-22T00:58:52;27.80;;;16.02;;
37049;SDS011;22958;51.232;6.826;2023-04-22T01:01:18;29.35;;;15.77;;
37049;SDS011;22958;51.232;6.826;2023-04-22T01:03:44;24.67;;;14.23;;
37049;SDS011;22958;51.232;6.826;2023-04-22T01:06:12;26.48;;;13.30;;
37049;SDS011;22958;51.232;6.826;2023-04-22T01:08:37;25.17;;;13.77;;
37049;SDS011;22958;51.232;6.826;2023-04-22T01:11:04;21.23;;;12.90;;
37049;SDS011;22958;51.232;6.826;2023-04-22T01:13:30;22.03;;;12.33;;
37049;SDS011;22958;51.232;6.826;2023-04-22T01:15:56;18.08;;;11.73;;
37049;SDS011;22958;51.232;6.826;2023-04-22T01:18:23;19.25;;;10.60;;
37049;SDS011;22958;51.232;6.826;2023-04-22T01:20:50;16.30;;;10.27;;
37049;SDS011;22958;51.232;6.826;2023-04-22T01:23:19;18.27;;;10.73;;
37049;SDS011;22958;51.232;6.826;2023-04-22T01:25:46;20.50;;;10.50;;
37049;SDS011;22958;51.232;6.826;2023-04-22T01:30:39;18.20;;;10.27;;
37049;SDS011;22958;51.232;6.826;2023-04-22T01:33:06;18.92;;;11.23;;
37049;SDS011;22958;51.232;6.826;2023-04-22T01:35:32;20.23;;;10.38;;
37049;SDS011;22958;51.232;6.826;2023-04-22T01:38:01;22.00;;;11.20;;
37049;SDS011;22958;51.232;6.826;2023-04-22T01:40:28;19.38;;;10.20;;
37049;SDS011;22958;51.232;6.826;2023-04-22T01:43:00;15.75;;;9.77;;
37049;SDS011;22958;51.232;6.826;2023-04-22T01:45:26;16.42;;;9.43;;
37049;SDS011;22958;51.232;6.826;2023-04-22T01:47:52;14.50;;;9.17;;
37049;SDS011;22958;51.232;6.826;2023-04-22T01:50:19;14.20;;;8.88;;
37049;SDS011;22958;51.232;6.826;2023-04-22T01:52:45;14.48;;;8.48;;
37049;SDS011;22958;51.232;6.826;2023-04-22T01:55:10;11.67;;;7.73;;
37049;SDS011;22958;51.232;6.826;2023-04-22T01:57:36;9.50;;;5.97;;
37049;SDS011;22958;51.232;6.826;2023-04-22T02:00:02;13.40;;;6.73;;
37049;SDS011;22958;51.232;6.826;2023-04-22T02:02:29;12.85;;;6.90;;
37049;SDS011;22958;51.232;6.826;2023-04-22T02:04:55;10.33;;;6.27;;
37049;SDS011;22958;51.232;6.826;2023-04-22T02:07:21;11.67;;;6.33;;
37049;SDS011;22958;51.232;6.826;2023-04-22T02:09:46;13.80;;;6.37;;
37049;SDS011;22958;51.232;6.826;2023-04-22T02:12:12;10.23;;;6.13;;
37049;SDS011;22958;51.232;6.826;2023-04-22T02:14:37;11.03;;;6.20;;
37049;SDS011;22958;51.232;6.826;2023-04-22T02:17:03;12.17;;;5.73;;
37049;SDS011;22958;51.232;6.826;2023-04-22T02:19:28;7.77;;;5.03;;
37049;SDS011;22958;51.232;6.826;2023-04-22T02:21:54;15.10;;;6.90;;
37049;SDS011;22958;51.232;6.826;2023-04-22T02:24:20;12.20;;;5.40;;
37049;SDS011;22958;51.232;6.826;2023-04-22T02:26:45;13.20;;;5.27;;
37049;SDS011;22958;51.232;6.826;2023-04-22T02:29:11;9.83;;;5.60;;
37049;SDS011;22958;51.232;6.826;2023-04-22T02:31:37;14.87;;;5.30;;
37049;SDS011;22958;51.232;6.826;2023-04-22T02:34:02;9.47;;;5.63;;
37049;SDS011;22958;51.232;6.826;2023-04-22T02:36:28;8.20;;;4.57;;
37049;SDS011;22958;51.232;6.826;2023-04-22T02:38:55;10.50;;;5.18;;
37049;SDS011;22958;51.232;6.826;2023-04-22T02:41:21;11.33;;;4.87;;
37049;SDS011;22958;51.232;6.826;2023-04-22T02:43:47;12.00;;;5.50;;
37049;SDS011;22958;51.232;6.826;2023-04-22T02:46:12;7.93;;;5.13;;
37049;SDS011;22958;51.232;6.826;2023-04-22T02:48:40;9.10;;;5.43;;
37049;SDS011;22958;51.232;6.826;2023-04-22T02:51:06;11.68;;;5.60;;
37049;SDS011;22958;51.232;6.826;2023-04-22T02:53:31;9.47;;;5.43;;
37049;SDS011;22958;51.232;6.826;2023-04-22T02:55:57;9.23;;;5.77;;
37049;SDS011;22958;51.232;6.826;2023-04-22T02:58:22;10.67;;;6.23;;
37049;SDS011;22958;51.232;6.826;2023-04-22T03:00:50;7.70;;;5.30;;
37049;SDS011;22958;51.232;6.826;2023-04-22T03:03:15;10.37;;;5.47;;
37049;SDS011;22958;51.232;6.826;2023-04-22T03:05:41;8.10;;;5.13;;
37049;SDS011;22958;51.232;6.826;2023-04-22T03:08:06;7.43;;;4.93;;
37049;SDS011;22958;51.232;6.826;2023-04-22T03:10:32;11.60;;;5.30;;
37049;SDS011;22958;51.232;6.826;2023-04-22T03:12:58;7.13;;;5.03;;
37049;SDS011;22958;51.232;6.826;2023-04-22T03:15:23;10.70;;;5.97;;
37049;SDS011;22958;51.232;6.826;2023-04-22T03:17:49;10.00;;;5.40;;
37049;SDS011;22958;51.232;6.826;2023-04-22T03:20:14;9.03;;;4.87;;
37049;SDS011;22958;51.232;6.826;2023-04-22T03:22:41;7.38;;;4.85;;
37049;SDS011;22958;51.232;6.826;2023-04-22T03:25:06;11.30;;;4.77;;
37049;SDS011;22958;51.232;6.826;2023-04-22T03:27:32;8.67;;;5.33;;
37049;SDS011;22958;51.232;6.826;2023-04-22T03:29:58;7.63;;;5.03;;
37049;SDS011;22958;51.232;6.826;2023-04-22T03:32:23;8.43;;;4.97;;
37049;SDS011;22958;51.232;6.826;2023-04-22T03:34:49;13.33;;;5.93;;
37049;SDS011;22958;51.232;6.826;2023-04-22T03:37:14;11.50;;;5.00;;
37049;SDS011;22958;51.232;6.826;2023-04-22T03:39:40;8.67;;;5.20;;
37049;SDS011;22958;51.232;6.826;2023-04-22T03:42:06;12.37;;;4.83;;
37049;SDS011;22958;51.232;6.826;2023-04-22T03:44:31;11.17;;;5.80;;
37049;SDS011;22958;51.232;6.826;2023-04-22T03:46:57;9.43;;;4.97;;
37049;SDS011;22958;51.232;6.826;2023-04-22T03:49:22;8.53;;;4.90;;
37049;SDS011;22958;51.232;6.826;2023-04-22T03:51:47;8.37;;;4.80;;
37049;SDS011;22958;51.232;6.826;2023-04-22T03:54:13;6.63;;;4.67;;
37049;SDS011;22958;51.232;6.826;2023-04-22T03:56:38;10.13;;;4.90;;
37049;SDS011;22958;51.232;6.826;2023-04-22T03:59:04;7.83;;;4.87;;
37049;SDS011;22958;51.232;6.826;2023-04-22T04:01:29;13.13;;;4.77;;
37049;SDS011;22958;51.232;6.826;2023-04-22T04:03:55;11.60;;;4.83;;
37049;SDS011;22958;51.232;6.826;2023-04-22T04:06:21;8.20;;;5.13;;
37049;SDS011;22958;51.232;6.826;2023-04-22T04:08:46;8.03;;;4.80;;
37049;SDS011;22958;51.232;6.826;2023-04-22T04:11:12;8.60;;;5.30;;
37049;SDS011;22958;51.232;6.826;2023-04-22T04:13:37;7.47;;;4.63;;
37049;SDS011;22958;51.232;6.826;2023-04-22T04:16:03;11.07;;;5.17;;
37049;SDS011;22958;51.232;6.826;2023-04-22T04:18:28;7.83;;;5.17;;
37049;SDS011;22958;51.232;6.826;2023-04-22T04:20:54;8.60;;;4.80;;
37049;SDS011;22958;51.232;6.826;2023-04-22T04:23:20;10.02;;;4.85;;
37049;SDS011;22958;51.232;6.826;2023-04-22T04:25:46;6.90;;;4.87;;
37049;SDS011;22958;51.232;6.826;2023-04-22T04:28:12;10.20;;;5.60;;
37049;SDS011;22958;51.232;6.826;2023-04-22T04:30:38;8.57;;;4.25;;
37049;SDS011;22958;51.232;6.826;2023-04-22T04:33:05;8.02;;;4.93;;
37049;SDS011;22958;51.232;6.826;2023-04-22T04:35:37;9.37;;;4.60;;
37049;SDS011;22958;51.232;6.826;2023-04-22T04:38:03;9.32;;;4.95;;
37049;SDS011;22958;51.232;6.826;2023-04-22T04:40:30;5.93;;;4.25;;
37049;SDS011;22958;51.232;6.826;2023-04-22T04:42:56;8.32;;;4.70;;
37049;SDS011;22958;51.232;6.826;2023-04-22T04:45:22;7.37;;;3.80;;
37049;SDS011;22958;51.232;6.826;2023-04-22T04:47:48;6.72;;;4.07;;
37049;SDS011;22958;51.232;6.826;2023-04-22T04:50:19;8.55;;;4.20;;
37049;SDS011;22958;51.232;6.826;2023-04-22T04:52:46;7.70;;;3.88;;
37049;SDS011;22958;51.232;6.826;2023-04-22T04:55:13;8.55;;;4.28;;
37049;SDS011;22958;51.232;6.826;2023-04-22T04:57:39;7.45;;;3.90;;
37049;SDS011;22958;51.232;6.826;2023-04-22T05:00:05;6.70;;;4.33;;
37049;SDS011;22958;51.232;6.826;2023-04-22T05:02:32;10.02;;;4.47;;
37049;SDS011;22958;51.232;6.826;2023-04-22T05:04:57;5.37;;;4.10;;
37049;SDS011;22958;51.232;6.826;2023-04-22T05:07:23;10.83;;;4.23;;
37049;SDS011;22958;51.232;6.826;2023-04-22T05:09:49;7.53;;;4.13;;
37049;SDS011;22958;51.232;6.826;2023-04-22T05:12:14;5.23;;;3.50;;
37049;SDS011;22958;51.232;6.826;2023-04-22T05:14:40;9.50;;;4.20;;
37049;SDS011;22958;51.232;6.826;2023-04-22T05:17:05;8.97;;;3.97;;
37049;SDS011;22958;51.232;6.826;2023-04-22T05:19:32;10.80;;;4.15;;
37049;SDS011;22958;51.232;6.826;2023-04-22T05:21:58;6.87;;;4.00;;
37049;SDS011;22958;51.232;6.826;2023-04-22T05:24:23;6.57;;;3.57;;
37049;SDS011;22958;51.232;6.826;2023-04-22T05:26:49;5.37;;;3.60;;
37049;SDS011;22958;51.232;6.826;2023-04-22T05:29:15;5.77;;;3.23;;
37049;SDS011;22958;51.232;6.826;2023-04-22T05:31:40;8.57;;;3.60;;
37049;SDS011;22958;51.232;6.826;2023-04-22T05:34:06;9.50;;;3.80;;
37049;SDS011;22958;51.232;6.826;2023-04-22T05:36:31;8.23;;;4.00;;
37049;SDS011;22958;51.232;6.826;2023-04-22T05:38:57;6.20;;;3.73;;
37049;SDS011;22958;51.232;6.826;2023-04-22T05:41:23;7.23;;;3.20;;
37049;SDS011;22958;51.232;6.826;2023-04-22T05:43:48;4.57;;;3.27;;
37049;SDS011;22958;51.232;6.826;2023-04-22T05:46:14;6.43;;;3.27;;
37049;SDS011;22958;51.232;6.826;2023-04-22T05:48:39;8.80;;;3.60;;
37049;SDS011;22958;51.232;6.826;2023-04-22T05:51:05;6.90;;;3.37;;
37049;SDS011;22958;51.232;6.826;2023-04-22T05:53:30;11.63;;;2.90;;
37049;SDS011;22958;51.232;6.826;2023-04-22T05:55:56;8.83;;;3.60;;
37049;SDS011;22958;51.232;6.826;2023-04-22T05:58:21;4.67;;;2.90;;
37049;SDS011;22958;51.232;6.826;2023-04-22T06:00:47;6.13;;;3.00;;
37049;SDS011;22958;51.232;6.826;2023-04-22T06:03:13;8.60;;;2.67;;
37049;SDS011;22958;51.232;6.826;2023-04-22T06:05:38;5.27;;;3.10;;
37049;SDS011;22958;51.232;6.826;2023-04-22T06:08:04;9.53;;;3.40;;
37049;SDS011;22958;51.232;6.826;2023-04-22T06:10:29;6.37;;;3.27;;
37049;SDS011;22958;51.232;6.826;2023-04-22T06:12:54;5.60;;;3.40;;
37049;SDS011;22958;51.232;6.826;2023-04-22T06:15:20;6.47;;;3.37;;
37049;SDS011;22958;51.232;6.826;2023-04-22T06:17:47;4.17;;;2.73;;
37049;SDS011;22958;51.232;6.826;2023-04-22T06:20:12;7.30;;;2.83;;
37049;SDS011;22958;51.232;6.826;2023-04-22T06:22:38;5.90;;;3.13;;
37049;SDS011;22958;51.232;6.826;2023-04-22T06:25:03;7.80;;;3.33;;
37049;SDS011;22958;51.232;6.826;2023-04-22T06:27:29;12.77;;;3.55;;
37049;SDS011;22958;51.232;6.826;2023-04-22T06:29:55;6.47;;;3.13;;
37049;SDS011;22958;51.232;6.826;2023-04-22T06:32:20;6.03;;;3.23;;
37049;SDS011;22958;51.232;6.826;2023-04-22T06:34:46;7.63;;;3.50;;
37049;SDS011;22958;51.232;6.826;2023-04-22T06:37:11;8.17;;;3.00;;
37049;SDS011;22958;51.232;6.826;2023-04-22T06:39:37;5.60;;;2.47;;
37049;SDS011;22958;51.232;6.826;2023-04-22T06:42:02;4.93;;;2.80;;
37049;SDS011;22958;51.232;6.826;2023-04-22T06:44:28;6.10;;;2.50;;
37049;SDS011;22958;51.232;6.826;2023-04-22T06:46:53;4.97;;;3.27;;
37049;SDS011;22958;51.232;6.826;2023-04-22T06:49:19;4.70;;;3.20;;
37049;SDS011;22958;51.232;6.826;2023-04-22T06:51:45;4.43;;;2.80;;
37049;SDS011;22958;51.232;6.826;2023-04-22T06:54:10;6.60;;;3.03;;
37049;SDS011;22958;51.232;6.826;2023-04-22T06:56:36;5.60;;;2.93;;
37049;SDS011;22958;51.232;6.826;2023-04-22T06:59:02;3.80;;;2.37;;
37049;SDS011;22958;51.232;6.826;2023-04-22T07:01:27;7.97;;;3.50;;
37049;SDS011;22958;51.232;6.826;2023-04-22T07:03:53;4.63;;;2.53;;
37049;SDS011;22958;51.232;6.826;2023-04-22T07:06:18;5.20;;;2.83;;
37049;SDS011;22958;51.232;6.826;2023-04-22T07:08:44;4.43;;;2.67;;
37049;SDS011;22958;51.232;6.826;2023-04-22T07:11:09;5.73;;;3.03;;
37049;SDS011;22958;51.232;6.826;2023-04-22T07:13:35;3.80;;;2.20;;
37049;SDS011;22958;51.232;6.826;2023-04-22T07:16:01;8.77;;;2.40;;
37049;SDS011;22958;51.232;6.826;2023-04-22T07:18:27;4.13;;;2.57;;
37049;SDS011;22958;51.232;6.826;2023-04-22T07:20:52;7.55;;;3.35;;
37049;SDS011;22958;51.232;6.826;2023-04-22T07:23:18;6.07;;;2.80;;
37049;SDS011;22958;51.232;6.826;2023-04-22T07:25:44;2.90;;;2.27;;
37049;SDS011;22958;51.232;6.826;2023-04-22T07:28:09;10.53;;;2.93;;
37049;SDS011;22958;51.232;6.826;2023-04-22T07:30:35;6.07;;;2.13;;
37049;SDS011;22958;51.232;6.826;2023-04-22T07:33:00;6.13;;;2.67;;
37049;SDS011;22958;51.232;6.826;2023-04-22T07:35:26;4.97;;;2.43;;
37049;SDS011;22958;51.232;6.826;2023-04-22T07:37:52;5.15;;;2.10;;
37049;SDS011;22958;51.232;6.826;2023-04-22T07:40:18;3.83;;;2.33;;
37049;SDS011;22958;51.232;6.826;2023-04-22T07:42:44;8.27;;;2.38;;
37049;SDS011;22958;51.232;6.826;2023-04-22T07:45:10;8.27;;;2.77;;
37049;SDS011;22958;51.232;6.826;2023-04-22T07:47:35;4.13;;;2.07;;
37049;SDS011;22958;51.232;6.826;2023-04-22T07:50:01;5.47;;;2.60;;
37049;SDS011;22958;51.232;6.826;2023-04-22T07:52:27;4.40;;;2.75;;
37049;SDS011;22958;51.232;6.826;2023-04-22T07:54:54;4.22;;;2.83;;
37049;SDS011;22958;51.232;6.826;2023-04-22T07:57:19;5.72;;;2.17;;
37049;SDS011;22958;51.232;6.826;2023-04-22T07:59:46;4.78;;;2.25;;
37049;SDS011;22958;51.232;6.826;2023-04-22T08:02:12;10.40;;;2.60;;
37049;SDS011;22958;51.232;6.826;2023-04-22T08:04:38;5.37;;;2.47;;
37049;SDS011;22958;51.232;6.826;2023-04-22T08:07:03;4.80;;;2.23;;
37049;SDS011;22958;51.232;6.826;2023-04-22T08:09:29;5.15;;;2.55;;
37049;SDS011;22958;51.232;6.826;2023-04-22T08:11:55;4.53;;;2.63;;
37049;SDS011;22958;51.232;6.826;2023-04-22T08:14:21;7.32;;;2.40;;
37049;SDS011;22958;51.232;6.826;2023-04-22T08:16:47;3.30;;;2.03;;
37049;SDS011;22958;51.232;6.826;2023-04-22T08:19:15;9.55;;;2.35;;
37049;SDS011;22958;51.232;6.826;2023-04-22T08:21:40;3.53;;;2.20;;
37049;SDS011;22958;51.232;6.826;2023-04-22T08:24:06;9.93;;;2.90;;
37049;SDS011;22958;51.232;6.826;2023-04-22T08:26:31;5.90;;;2.30;;
37049;SDS011;22958;51.232;6.826;2023-04-22T08:28:57;6.53;;;2.33;;
37049;SDS011;22958;51.232;6.826;2023-04-22T08:31:22;5.37;;;2.20;;
37049;SDS011;22958;51.232;6.826;2023-04-22T08:33:48;4.20;;;2.60;;
37049;SDS011;22958;51.232;6.826;2023-04-22T08:36:14;5.85;;;2.28;;
37049;SDS011;22958;51.232;6.826;2023-04-22T08:38:40;5.93;;;2.47;;
37049;SDS011;22958;51.232;6.826;2023-04-22T08:41:05;3.87;;;2.50;;
37049;SDS011;22958;51.232;6.826;2023-04-22T08:43:32;6.20;;;2.28;;
37049;SDS011;22958;51.232;6.826;2023-04-22T08:45:58;3.53;;;2.08;;
37049;SDS011;22958;51.232;6.826;2023-04-22T08:48:24;3.33;;;2.30;;
37049;SDS011;22958;51.232;6.826;2023-04-22T08:50:50;6.07;;;2.50;;
37049;SDS011;22958;51.232;6.826;2023-04-22T08:53:17;3.55;;;2.35;;
37049;SDS011;22958;51.232;6.826;2023-04-22T08:58:10;9.23;;;2.78;;
37049;SDS011;22958;51.232;6.826;2023-04-22T09:00:37;4.97;;;2.70;;
37049;SDS011;22958;51.232;6.826;2023-04-22T09:03:06;6.80;;;2.70;;
37049;SDS011;22958;51.232;6.826;2023-04-22T09:05:32;5.63;;;2.70;;
37049;SDS011;22958;51.232;6.826;2023-04-22T09:08:00;5.93;;;2.75;;
37049;SDS011;22958;51.232;6.826;2023-04-22T09:10:27;9.18;;;2.45;;
37049;SDS011;22958;51.232;6.826;2023-04-22T09:12:54;4.47;;;2.13;;
37049;SDS011;22958;51.232;6.826;2023-04-22T09:15:21;4.43;;;2.58;;
37049;SDS011;22958;51.232;6.826;2023-04-22T09:17:49;7.63;;;2.40;;
37049;SDS011;22958;51.232;6.826;2023-04-22T09:20:16;5.40;;;2.45;;
37049;SDS011;22958;51.232;6.826;2023-04-22T09:22:47;4.88;;;2.45;;
37049;SDS011;22958;51.232;6.826;2023-04-22T09:25:17;3.53;;;2.45;;
37049;SDS011;22958;51.232;6.826;2023-04-22T09:27:52;4.90;;;2.00;;
37049;SDS011;22958;51.232;6.826;2023-04-22T09:32:56;6.47;;;1.80;;
37049;SDS011;22958;51.232;6.826;2023-04-22T09:37:56;5.60;;;2.42;;
37049;SDS011;22958;51.232;6.826;2023-04-22T09:40:22;8.90;;;2.75;;
37049;SDS011;22958;51.232;6.826;2023-04-22T09:42:49;10.98;;;3.10;;
37049;SDS011;22958;51.232;6.826;2023-04-22T09:45:32;11.20;;;2.40;;
37049;SDS011;22958;51.232;6.826;2023-04-22T09:48:01;5.70;;;2.85;;
37049;SDS011;22958;51.232;6.826;2023-04-22T09:50:37;4.88;;;2.55;;
37049;SDS011;22958;51.232;6.826;2023-04-22T09:53:08;12.40;;;2.60;;
37049;SDS011;22958;51.232;6.826;2023-04-22T09:55:36;6.88;;;2.67;;
37049;SDS011;22958;51.232;6.826;2023-04-22T09:58:14;3.58;;;2.40;;
37049;SDS011;22958;51.232;6.826;2023-04-22T10:00:42;5.40;;;2.28;;
37049;SDS011;22958;51.232;6.826;2023-04-22T10:03:15;3.25;;;2.33;;
37049;SDS011;22958;51.232;6.826;2023-04-22T10:05:41;8.00;;;2.30;;
37049;SDS011;22958;51.232;6.826;2023-04-22T10:08:09;5.80;;;2.30;;
37049;SDS011;22958;51.232;6.826;2023-04-22T10:10:35;7.20;;;2.30;;
37049;SDS011;22958;51.232;6.826;2023-04-22T10:13:01;4.43;;;2.53;;
37049;SDS011;22958;51.232;6.826;2023-04-22T10:15:41;6.25;;;2.70;;
37049;SDS011;22958;51.232;6.826;2023-04-22T10:18:11;6.43;;;2.53;;
37049;SDS011;22958;51.232;6.826;2023-04-22T10:20:41;3.15;;;2.20;;
37049;SDS011;22958;51.232;6.826;2023-04-22T10:23:11;5.90;;;2.45;;
37049;SDS011;22958;51.232;6.826;2023-04-22T10:25:39;7.90;;;2.47;;
37049;SDS011;22958;51.232;6.826;2023-04-22T10:28:08;5.10;;;2.60;;
37049;SDS011;22958;51.232;6.826;2023-04-22T10:30:35;6.10;;;2.58;;
37049;SDS011;22958;51.232;6.826;2023-04-22T10:36:08;4.82;;;2.63;;
37049;SDS011;22958;51.232;6.826;2023-04-22T10:38:34;8.05;;;2.60;;
37049;SDS011;22958;51.232;6.826;2023-04-22T10:41:32;4.30;;;2.28;;
37049;SDS011;22958;51.232;6.826;2023-04-22T10:44:04;13.45;;;2.42;;
37049;SDS011;22958;51.232;6.826;2023-04-22T10:51:39;6.60;;;2.25;;
37049;SDS011;22958;51.232;6.826;2023-04-22T10:54:05;5.03;;;2.30;;
37049;SDS011;22958;51.232;6.826;2023-04-22T10:56:31;5.72;;;2.20;;
37049;SDS011;22958;51.232;6.826;2023-04-22T10:58:57;10.97;;;2.13;;
37049;SDS011;22958;51.232;6.826;2023-04-22T11:01:22;10.63;;;2.37;;
37049;SDS011;22958;51.232;6.826;2023-04-22T11:03:51;6.00;;;2.63;;
37049;SDS011;22958;51.232;6.826;2023-04-22T11:06:18;7.23;;;2.70;;
37049;SDS011;22958;51.232;6.826;2023-04-22T11:08:49;9.70;;;2.83;;
37049;SDS011;22958;51.232;6.826;2023-04-22T11:11:31;6.82;;;2.22;;
37049;SDS011;22958;51.232;6.826;2023-04-22T11:13:56;8.00;;;2.43;;
37049;SDS011;22958;51.232;6.826;2023-04-22T11:16:22;6.35;;;2.08;;
37049;SDS011;22958;51.232;6.826;2023-04-22T11:18:48;4.73;;;2.30;;
37049;SDS011;22958;51.232;6.826;2023-04-22T11:21:14;5.90;;;2.33;;
37049;SDS011;22958;51.232;6.826;2023-04-22T11:23:47;4.72;;;2.38;;
37049;SDS011;22958;51.232;6.826;2023-04-22T11:26:14;4.88;;;2.15;;
37049;SDS011;22958;51.232;6.826;2023-04-22T11:28:46;11.17;;;2.60;;
37049;SDS011;22958;51.232;6.826;2023-04-22T11:31:12;9.95;;;2.38;;
37049;SDS011;22958;51.232;6.826;2023-04-22T11:33:39;8.63;;;2.22;;
37049;SDS011;22958;51.232;6.826;2023-04-22T11:36:08;6.43;;;2.28;;
37049;SDS011;22958;51.232;6.826;2023-04-22T11:38:35;7.30;;;2.15;;
37049;SDS011;22958;51.232;6.826;2023-04-22T11:41:01;9.13;;;2.33;;
37049;SDS011;22958;51.232;6.826;2023-04-22T11:43:28;6.95;;;2.40;;
37049;SDS011;22958;51.232;6.826;2023-04-22T11:45:54;6.47;;;2.30;;
37049;SDS011;22958;51.232;6.826;2023-04-22T11:48:21;4.80;;;2.22;;
37049;SDS011;22958;51.232;6.826;2023-04-22T11:50:47;7.93;;;2.57;;
37049;SDS011;22958;51.232;6.826;2023-04-22T11:55:45;6.63;;;2.33;;
37049;SDS011;22958;51.232;6.826;2023-04-22T11:58:16;4.35;;;2.00;;
37049;SDS011;22958;51.232;6.826;2023-04-22T12:00:47;7.15;;;2.70;;
37049;SDS011;22958;51.232;6.826;2023-04-22T12:05:53;4.60;;;2.10;;
37049;SDS011;22958;51.232;6.826;2023-04-22T12:08:37;8.10;;;2.40;;
37049;SDS011;22958;51.232;6.826;2023-04-22T12:11:08;8.50;;;3.03;;
37049;SDS011;22958;51.232;6.826;2023-04-22T12:16:01;6.83;;;3.67;;
37049;SDS011;22958;51.232;6.826;2023-04-22T12:18:38;9.10;;;2.50;;
37049;SDS011;22958;51.232;6.826;2023-04-22T12:21:16;7.07;;;2.85;;
37049;SDS011;22958;51.232;6.826;2023-04-22T12:23:47;3.78;;;2.33;;
37049;SDS011;22958;51.232;6.826;2023-04-22T12:26:17;6.32;;;2.72;;
37049;SDS011;22958;51.232;6.826;2023-04-22T12:28:44;11.68;;;3.38;;
37049;SDS011;22958;51.232;6.826;2023-04-22T12:33:37;7.40;;;2.78;;
37049;SDS011;22958;51.232;6.826;2023-04-22T12:36:03;9.82;;;2.65;;
37049;SDS011;22958;51.232;6.826;2023-04-22T12:38:29;7.15;;;2.63;;
37049;SDS011;22958;51.232;6.826;2023-04-22T12:40:55;10.47;;;2.67;;
37049;SDS011;22958;51.232;6.826;2023-04-22T12:43:21;8.13;;;2.25;;
37049;SDS011;22958;51.232;6.826;2023-04-22T12:45:47;6.70;;;2.90;;
37049;SDS011;22958;51.232;6.826;2023-04-22T12:48:12;8.27;;;3.00;;
37049;SDS011;22958;51.232;6.826;2023-04-22T12:50:39;6.20;;;2.53;;
37049;SDS011;22958;51.232;6.826;2023-04-22T12:53:04;8.25;;;3.13;;
37049;SDS011;22958;51.232;6.826;2023-04-22T12:55:30;6.03;;;2.87;;
37049;SDS011;22958;51.232;6.826;2023-04-22T12:57:56;7.68;;;2.95;;
37049;SDS011;22958;51.232;6.826;2023-04-22T13:00:22;6.40;;;2.63;;
37049;SDS011;22958;51.232;6.826;2023-04-22T13:02:48;5.65;;;3.13;;
37049;SDS011;22958;51.232;6.826;2023-04-22T13:05:15;5.35;;;2.40;;
37049;SDS011;22958;51.232;6.826;2023-04-22T13:07:42;8.30;;;2.78;;
37049;SDS011;22958;51.232;6.826;2023-04-22T13:10:09;4.32;;;2.30;;
37049;SDS011;22958;51.232;6.826;2023-04-22T13:12:36;8.70;;;2.58;;
37049;SDS011;22958;51.232;6.826;2023-04-22T13:15:02;5.20;;;2.57;;
37049;SDS011;22958;51.232;6.826;2023-04-22T13:17:28;8.40;;;2.92;;
37049;SDS011;22958;51.232;6.826;2023-04-22T13:19:54;7.53;;;3.45;;
37049;SDS011;22958;51.232;6.826;2023-04-22T13:22:20;10.17;;;3.20;;
37049;SDS011;22958;51.232;6.826;2023-04-22T13:24:46;6.25;;;2.50;;
37049;SDS011;22958;51.232;6.826;2023-04-22T13:27:12;8.13;;;2.50;;
37049;SDS011;22958;51.232;6.826;2023-04-22T13:29:38;7.50;;;2.40;;
37049;SDS011;22958;51.232;6.826;2023-04-22T13:32:03;5.17;;;2.53;;
37049;SDS011;22958;51.232;6.826;2023-04-22T13:34:29;5.65;;;2.55;;
37049;SDS011;22958;51.232;6.826;2023-04-22T13:36:55;7.97;;;2.43;;
37049;SDS011;22958;51.232;6.826;2023-04-22T13:39:21;3.90;;;2.53;;
37049;SDS011;22958;51.232;6.826;2023-04-22T13:44:13;8.00;;;2.10;;
37049;SDS011;22958;51.232;6.826;2023-04-22T13:46:39;7.87;;;2.10;;
37049;SDS011;22958;51.232;6.826;2023-04-22T13:49:06;4.82;;;2.40;;
37049;SDS011;22958;51.232;6.826;2023-04-22T13:51:31;7.53;;;2.43;;
37049;SDS011;22958;51.232;6.826;2023-04-22T13:53:57;9.50;;;3.30;;
37049;SDS011;22958;51.232;6.826;2023-04-22T13:56:23;6.22;;;2.85;;
37049;SDS011;22958;51.232;6.826;2023-04-22T13:58:49;6.90;;;2.25;;
37049;SDS011;22958;51.232;6.826;2023-04-22T14:01:15;6.32;;;2.45;;
37049;SDS011;22958;51.232;6.826;2023-04-22T14:03:41;6.20;;;2.58;;
37049;SDS011;22958;51.232;6.826;2023-04-22T14:06:08;4.88;;;2.20;;
37049;SDS011;22958;51.232;6.826;2023-04-22T14:08:33;4.20;;;2.13;;
37049;SDS011;22958;51.232;6.826;2023-04-22T14:10:59;8.57;;;2.53;;
37049;SDS011;22958;51.232;6.826;2023-04-22T14:13:27;7.25;;;2.95;;
37049;SDS011;22958;51.232;6.826;2023-04-22T14:15:53;6.53;;;2.28;;
37049;SDS011;22958;51.232;6.826;2023-04-22T14:18:19;5.47;;;2.73;;
37049;SDS011;22958;51.232;6.826;2023-04-22T14:20:46;7.95;;;2.72;;
37049;SDS011;22958;51.232;6.826;2023-04-22T14:23:11;5.40;;;2.50;;
37049;SDS011;22958;51.232;6.826;2023-04-22T14:25:37;7.93;;;2.73;;
37049;SDS011;22958;51.232;6.826;2023-04-22T14:28:02;8.13;;;3.30;;
37049;SDS011;22958;51.232;6.826;2023-04-22T14:30:28;6.30;;;3.00;;
37049;SDS011;22958;51.232;6.826;2023-04-22T14:32:54;6.78;;;3.70;;
37049;SDS011;22958;51.232;6.826;2023-04-22T14:35:19;11.83;;;4.40;;
37049;SDS011;22958;51.232;6.826;2023-04-22T14:37:45;6.80;;;3.23;;
37049;SDS011;22958;51.232;6.826;2023-04-22T14:40:11;6.97;;;2.30;;
37049;SDS011;22958;51.232;6.826;2023-04-22T14:42:37;8.90;;;2.93;;
37049;SDS011;22958;51.232;6.826;2023-04-22T14:45:03;6.95;;;2.63;;
37049;SDS011;22958;51.232;6.826;2023-04-22T14:47:29;5.18;;;1.70;;
37049;SDS011;22958;51.232;6.826;2023-04-22T14:49:55;4.23;;;1.90;;
37049;SDS011;22958;51.232;6.826;2023-04-22T14:52:20;3.77;;;2.07;;
37049;SDS011;22958;51.232;6.826;2023-04-22T14:54:46;5.07;;;2.10;;
37049;SDS011;22958;51.232;6.826;2023-04-22T14:57:12;3.10;;;1.95;;
37049;SDS011;22958;51.232;6.826;2023-04-22T14:59:38;3.25;;;1.95;;
37049;SDS011;22958;51.232;6.826;2023-04-22T15:02:04;10.87;;;2.30;;
37049;SDS011;22958;51.232;6.826;2023-04-22T15:04:31;7.53;;;2.45;;
37049;SDS011;22958;51.232;6.826;2023-04-22T15:06:56;10.23;;;2.43;;
37049;SDS011;22958;51.232;6.826;2023-04-22T15:09:23;4.93;;;2.17;;
37049;SDS011;22958;51.232;6.826;2023-04-22T15:11:49;4.22;;;2.30;;